createdAt,value
2023-03-07T00:00:22.886Z,22.00
2023-03-07T00:05:46.402Z,30.60
2023-03-07T00:10:50.201Z,33.90
2023-03-07T00:15:54.257Z,26.80
2023-03-07T00:21:09.787Z,24.90
2023-03-07T00:26:21.171Z,24.50
2023-03-07T00:31:24.622Z,26.90
2023-03-07T00:36:27.477Z,27.00
2023-03-07T00:41:29.939Z,30.10
2023-03-07T00:46:33.732Z,30.10
2023-03-07T00:51:37.367Z,25.80
2023-03-07T00:56:40.395Z,33.20
2023-03-07T01:01:43.683Z,26.70
2023-03-07T01:06:47.631Z,26.10
2023-03-07T01:11:50.890Z,25.00
2023-03-07T01:16:54.346Z,26.20
2023-03-07T01:21:57.422Z,29.70
2023-03-07T01:27:01.312Z,25.10
2023-03-07T01:32:04.372Z,21.30
2023-03-07T01:37:07.815Z,24.20
2023-03-07T01:42:11.156Z,30.80
2023-03-07T01:47:14.838Z,27.90
2023-03-07T01:52:30.603Z,25.00
2023-03-07T01:57:38.146Z,28.10
2023-03-07T02:02:44.489Z,30.90
2023-03-07T02:07:50.416Z,27.10
2023-03-07T02:12:54.143Z,23.60
2023-03-07T02:18:01.495Z,21.20
2023-03-07T02:23:06.548Z,29.30
2023-03-07T02:28:13.989Z,23.60
2023-03-07T02:33:16.819Z,23.40
2023-03-07T02:38:19.462Z,23.60
2023-03-07T02:43:22.687Z,25.00
2023-03-07T02:48:24.965Z,26.80
2023-03-07T02:53:27.917Z,27.80
2023-03-07T02:58:29.617Z,33.40
2023-03-07T03:03:31.890Z,28.60
2023-03-07T03:08:35.838Z,31.80
2023-03-07T03:13:39.187Z,29.40
2023-03-07T03:18:41.785Z,24.70
2023-03-07T03:23:44.477Z,21.50
2023-03-07T03:28:47.994Z,32.80
2023-03-07T03:33:52.296Z,27.10
2023-03-07T03:38:58.560Z,34.50
2023-03-07T03:44:02.266Z,31.60
2023-03-07T03:49:05.142Z,30.70
2023-03-07T03:54:08.731Z,36.20
2023-03-07T03:59:13.260Z,33.20
2023-03-07T04:04:16.637Z,28.40
2023-03-07T04:09:19.544Z,28.90
2023-03-07T04:14:22.193Z,25.00
2023-03-07T04:19:24.872Z,22.40
2023-03-07T04:24:28.847Z,29.50
2023-03-07T04:29:33.816Z,30.20
2023-03-07T04:34:37.297Z,29.50
2023-03-07T04:39:41.592Z,34.90
2023-03-07T04:44:44.754Z,33.30
2023-03-07T04:49:47.036Z,20.20
2023-03-07T04:54:49.726Z,30.70
2023-03-07T04:59:57.721Z,19.80
2023-03-07T05:10:04.847Z,31.70
2023-03-07T05:15:07.936Z,34.10
2023-03-07T05:20:12.986Z,35.60
2023-03-07T05:25:17.607Z,38.00
2023-03-07T05:30:22.232Z,39.40
2023-03-07T05:35:25.056Z,35.60
2023-03-07T05:40:28.691Z,31.90
2023-03-07T05:45:32.549Z,34.50
2023-03-07T05:50:39.102Z,40.40
2023-03-07T05:55:43.891Z,45.10
2023-03-07T06:00:46.238Z,23.30
2023-03-07T06:05:52.654Z,34.70
2023-03-07T06:10:56.580Z,33.70
2023-03-07T06:16:00.770Z,39.30
2023-03-07T06:21:08.664Z,37.90
2023-03-07T06:31:18.784Z,38.10
2023-03-07T06:36:22.941Z,45.60
2023-03-07T06:41:26.264Z,39.40
2023-03-07T06:46:29.005Z,27.50
2023-03-07T06:51:31.300Z,31.70
2023-03-07T06:56:34.911Z,26.90
2023-03-07T07:01:37.274Z,40.40
2023-03-07T07:06:39.434Z,36.40
2023-03-07T07:11:42.143Z,35.30
2023-03-07T07:16:45.587Z,32.70
2023-03-07T07:21:48.395Z,33.10
2023-03-07T07:26:52.582Z,34.00
2023-03-07T07:31:56.098Z,38.00
2023-03-07T07:37:00.557Z,38.50
2023-03-07T07:42:04.276Z,34.20
2023-03-07T07:47:07.809Z,31.50
2023-03-07T07:52:11.436Z,40.60
2023-03-07T07:57:14.986Z,32.90
2023-03-07T08:02:18.374Z,34.50
2023-03-07T08:07:21.936Z,34.70
2023-03-07T08:12:27.952Z,30.80
2023-03-07T08:17:32.582Z,31.40
2023-03-07T08:22:37.512Z,37.80
2023-03-07T08:27:40.834Z,24.20
2023-03-07T08:32:44.669Z,33.60
2023-03-07T08:37:49.161Z,29.80
2023-03-07T08:42:55.541Z,32.20
2023-03-07T08:47:59.349Z,25.50
2023-03-07T08:53:03.386Z,31.80
2023-03-07T08:58:06.712Z,30.00
2023-03-07T09:03:10.419Z,29.10
2023-03-07T09:08:14.035Z,23.80
2023-03-07T09:13:18.505Z,31.00
2023-03-07T09:18:24.011Z,27.80
2023-03-07T09:23:26.308Z,28.80
2023-03-07T09:28:28.799Z,36.00
2023-03-07T09:33:30.888Z,33.30
2023-03-07T09:38:33.413Z,35.40
2023-03-07T09:43:57.818Z,30.30
2023-03-07T09:49:30.698Z,29.50
2023-03-07T09:54:59.923Z,32.80
2023-03-07T10:00:16.189Z,28.40
2023-03-07T10:05:38.407Z,26.90
2023-03-07T10:11:00.784Z,29.30
2023-03-07T10:16:36.194Z,29.30
2023-03-07T10:21:54.124Z,28.10
2023-03-07T10:27:08.001Z,27.90
2023-03-07T10:32:20.201Z,23.10
2023-03-07T10:37:36.968Z,22.50
2023-03-07T10:42:41.119Z,23.00
2023-03-07T10:47:45.161Z,17.00
2023-03-07T10:53:23.149Z,20.80
2023-03-07T10:58:28.428Z,20.50
2023-03-07T11:03:52.096Z,15.40
2023-03-07T11:08:58.560Z,17.90
2023-03-07T11:14:13.373Z,13.60
2023-03-07T11:19:35.535Z,13.80
2023-03-07T11:24:39.739Z,12.70
2023-03-07T11:29:44.238Z,14.50
2023-03-07T11:35:00.151Z,11.20
2023-03-07T11:40:19.683Z,15.40
2023-03-07T11:45:53.105Z,11.00
2023-03-07T11:51:00.939Z,16.20
2023-03-07T11:56:19.503Z,15.00
2023-03-07T12:01:56.289Z,12.10
2023-03-07T12:07:32.044Z,14.50
2023-03-07T12:13:21.944Z,14.70
2023-03-07T12:18:44.072Z,20.80
2023-03-07T12:24:09.455Z,12.40
2023-03-07T12:29:40.739Z,13.00
2023-03-07T12:35:15.727Z,14.20
2023-03-07T12:40:33.014Z,14.80
2023-03-07T12:46:11.854Z,15.40
2023-03-07T12:51:19.955Z,12.40
2023-03-07T13:02:14.439Z,20.30
2023-03-07T13:07:23.793Z,17.90
2023-03-07T13:12:29.733Z,17.40
2023-03-07T13:17:33.131Z,12.90
2023-03-07T13:22:34.934Z,15.20
2023-03-07T13:27:40.493Z,11.20
2023-03-07T13:32:49.817Z,15.20
2023-03-07T13:37:56.716Z,16.70
2023-03-07T13:42:59.130Z,18.10
2023-03-07T13:48:01.316Z,15.00
2023-03-07T13:53:39.918Z,14.70
2023-03-07T13:59:04.015Z,15.50
2023-03-07T14:04:11.129Z,12.50
2023-03-07T14:09:23.186Z,18.60
2023-03-07T14:14:31.584Z,17.10
2023-03-07T14:20:11.338Z,15.40
2023-03-07T14:25:14.707Z,14.70
2023-03-07T14:30:18.333Z,15.10
2023-03-07T14:35:42.302Z,11.50
2023-03-07T14:41:10.735Z,11.50
2023-03-07T14:46:36.320Z,17.20
2023-03-07T14:51:45.393Z,27.20
2023-03-07T14:56:52.404Z,14.80
2023-03-07T15:01:55.151Z,15.60
2023-03-07T15:07:04.426Z,9.90
2023-03-07T15:12:15.436Z,13.80
2023-03-07T15:17:27.821Z,10.10
2023-03-07T15:22:39.002Z,12.40
2023-03-07T15:27:41.625Z,13.40
2023-03-07T15:32:45.191Z,10.90
2023-03-07T15:37:59.608Z,11.40
2023-03-07T15:43:04.496Z,57.10
2023-03-07T15:48:12.602Z,33.50
2023-03-07T15:53:27.121Z,12.30
2023-03-07T15:58:31.815Z,12.20
2023-03-07T16:03:35.943Z,9.50
2023-03-07T16:08:38.151Z,11.90
2023-03-07T16:13:43.986Z,10.00
2023-03-07T16:18:47.584Z,14.30
2023-03-07T16:23:50.924Z,11.90
2023-03-07T16:28:53.855Z,9.50
2023-03-07T16:33:57.517Z,10.70
2023-03-07T16:38:59.868Z,12.20
2023-03-07T16:44:02.766Z,14.40
2023-03-07T16:49:04.822Z,12.60
2023-03-07T16:54:07.633Z,15.60
2023-03-07T16:59:16.841Z,12.20
2023-03-07T17:04:21.150Z,22.00
2023-03-07T17:09:26.874Z,14.50
2023-03-07T17:19:37.888Z,10.20
2023-03-07T17:24:41.508Z,12.00
2023-03-07T17:29:52.276Z,12.80
2023-03-07T17:34:55.088Z,11.10
2023-03-07T17:39:58.215Z,14.30
2023-03-07T17:45:00.806Z,14.00
2023-03-07T17:50:06.681Z,13.50
2023-03-07T17:55:10.857Z,13.20
2023-03-07T18:00:14.295Z,9.60
2023-03-07T18:05:18.825Z,13.70
2023-03-07T18:10:22.728Z,16.00
2023-03-07T18:15:25.741Z,13.70
2023-03-07T18:20:29.500Z,14.20
2023-03-07T18:25:32.747Z,9.70
2023-03-07T18:30:35.729Z,10.30
2023-03-07T18:35:39.139Z,15.20
2023-03-07T18:40:42.184Z,15.30
2023-03-07T18:45:48.632Z,20.10
2023-03-07T18:51:03.652Z,17.30
2023-03-07T18:56:09.620Z,15.80
2023-03-07T19:01:17.512Z,16.80
2023-03-07T19:06:22.989Z,17.10
2023-03-07T19:11:26.449Z,11.60
2023-03-07T19:16:28.867Z,13.60
2023-03-07T19:21:31.416Z,11.70
2023-03-07T19:26:33.588Z,10.70
2023-03-07T19:31:36.032Z,9.00
2023-03-07T19:36:41.805Z,9.30
2023-03-07T19:41:50.403Z,11.50
2023-03-07T19:46:55.173Z,12.00
2023-03-07T19:51:58.760Z,10.30
2023-03-07T19:57:01.171Z,8.20
2023-03-07T20:02:03.532Z,9.00
2023-03-07T20:07:06.719Z,11.00
2023-03-07T20:12:10.283Z,8.20
2023-03-07T20:17:12.957Z,7.40
2023-03-07T20:22:17.180Z,7.50
2023-03-07T20:27:25.470Z,12.00
2023-03-07T20:32:33.328Z,12.60
2023-03-07T20:37:40.684Z,7.60
2023-03-07T20:42:44.416Z,8.90
2023-03-07T20:47:48.278Z,11.30
2023-03-07T20:52:52.435Z,10.20
2023-03-07T20:57:56.702Z,9.70
2023-03-07T21:03:05.739Z,9.00
2023-03-07T21:08:11.572Z,7.80
2023-03-07T21:13:16.310Z,6.50
2023-03-07T21:18:21.099Z,4.60
2023-03-07T21:23:23.686Z,2.30
2023-03-07T21:28:27.391Z,1.60
2023-03-07T21:33:37.044Z,5.10
2023-03-07T21:38:46.785Z,6.10
2023-03-07T21:43:51.102Z,6.60
2023-03-07T21:48:53.963Z,7.20
2023-03-07T21:53:57.542Z,5.10
2023-03-07T21:59:00.431Z,3.20
2023-03-07T22:04:03.214Z,5.70
2023-03-07T22:09:05.845Z,6.00
2023-03-07T22:14:08.125Z,3.90
2023-03-07T22:19:11.628Z,7.00
2023-03-07T22:24:15.427Z,5.40
2023-03-07T22:29:18.563Z,2.30
2023-03-07T22:34:22.717Z,2.80
2023-03-07T22:39:26.953Z,3.70
2023-03-07T22:44:29.812Z,5.00
2023-03-07T22:49:33.114Z,3.30
2023-03-07T22:54:40.082Z,3.80
2023-03-07T22:59:43.404Z,5.70
2023-03-07T23:04:47.045Z,3.80
2023-03-07T23:09:49.781Z,4.00
2023-03-07T23:14:52.977Z,4.70
2023-03-07T23:19:57.188Z,4.80
2023-03-07T23:25:00.511Z,7.00
2023-03-07T23:30:05.507Z,7.30
2023-03-07T23:35:08.185Z,14.30
2023-03-07T23:40:12.190Z,10.40
2023-03-07T23:45:15.416Z,4.10
2023-03-07T23:50:18.736Z,4.50
2023-03-07T23:55:21.486Z,5.10
